createdAt,value
2023-03-23T15:59:39.383Z,94.20
2023-03-23T16:02:06.435Z,94.20
2023-03-23T16:04:33.536Z,94.20
2023-03-23T16:07:00.919Z,94.20
2023-03-23T16:09:27.624Z,94.40
2023-03-23T16:11:54.248Z,94.50
2023-03-23T16:14:21.070Z,94.80
2023-03-23T16:16:51.100Z,94.90
2023-03-23T16:19:20.273Z,95.10
2023-03-23T16:21:47.160Z,95.20
2023-03-23T16:24:13.848Z,95.20
2023-03-23T16:26:40.983Z,95.40
2023-03-23T16:29:33.772Z,95.50
2023-03-23T16:32:03.639Z,95.60
2023-03-23T16:34:33.563Z,95.60
2023-03-23T16:37:00.527Z,95.80
2023-03-23T16:39:27.692Z,95.90
2023-03-23T16:41:54.371Z,96.10
2023-03-23T16:44:21.093Z,96.30
2023-03-23T16:46:47.765Z,96.40
2023-03-23T16:49:14.484Z,96.60
2023-03-23T16:51:42.805Z,96.70
2023-03-23T16:54:09.917Z,96.90
2023-03-23T16:56:36.519Z,97.00
2023-03-23T16:59:03.168Z,97.10
2023-03-23T17:01:29.964Z,97.20
2023-03-23T17:03:56.687Z,97.20
2023-03-23T17:06:23.438Z,97.20
2023-03-23T17:08:50.114Z,97.30
2023-03-23T17:11:16.817Z,97.40
2023-03-23T17:13:43.476Z,97.50
2023-03-23T17:16:10.406Z,97.50
2023-03-23T17:18:37.086Z,97.50
2023-03-23T17:21:03.893Z,97.50
2023-03-23T17:23:30.926Z,97.50
2023-03-23T17:25:57.562Z,97.60
2023-03-23T17:28:24.365Z,97.50
2023-03-23T17:30:52.306Z,97.50
2023-03-23T17:33:19.036Z,97.50
2023-03-23T17:35:47.373Z,97.50
2023-03-23T17:38:14.507Z,97.50
2023-03-23T17:40:41.253Z,97.40
2023-03-23T17:43:07.957Z,97.50
2023-03-23T17:45:34.677Z,97.40
2023-03-23T17:48:01.663Z,97.40
2023-03-23T17:50:28.445Z,97.40
2023-03-23T17:52:56.672Z,97.50
2023-03-23T17:55:23.343Z,97.50
2023-03-23T17:57:49.971Z,97.50
2023-03-23T18:00:17.409Z,97.60
2023-03-23T18:02:44.294Z,97.60
2023-03-23T18:05:11.694Z,97.60
2023-03-23T18:07:38.398Z,97.60
2023-03-23T18:10:11.705Z,97.60
2023-03-23T18:12:40.388Z,97.60
2023-03-23T18:15:08.822Z,97.60
2023-03-23T18:17:35.573Z,97.70
2023-03-23T18:20:03.586Z,97.70
2023-03-23T18:22:30.285Z,97.70
2023-03-23T18:24:58.285Z,97.70
2023-03-23T18:27:26.140Z,97.70
2023-03-23T18:29:52.848Z,97.80
2023-03-23T18:32:19.883Z,97.80
2023-03-23T18:34:46.830Z,97.80
2023-03-23T18:37:13.532Z,97.80
2023-03-23T18:39:40.289Z,97.80
2023-03-23T18:42:06.999Z,97.90
2023-03-23T18:44:34.215Z,97.90
2023-03-23T18:47:01.078Z,98.00
2023-03-23T18:49:28.848Z,98.10
2023-03-23T18:51:55.821Z,98.10
2023-03-23T18:54:22.519Z,98.10
2023-03-23T18:56:49.191Z,98.20
2023-03-23T18:59:16.187Z,98.20
2023-03-23T19:01:42.857Z,98.20
2023-03-23T19:04:12.797Z,98.30
2023-03-23T19:06:39.507Z,98.30
2023-03-23T19:09:06.316Z,98.30
2023-03-23T19:11:33.014Z,98.30
2023-03-23T19:14:03.002Z,98.20
2023-03-23T19:16:32.801Z,98.20
2023-03-23T19:19:01.600Z,98.20
2023-03-23T19:21:29.978Z,98.20
2023-03-23T19:23:58.549Z,98.20
2023-03-23T19:26:36.978Z,98.10
2023-03-23T19:29:26.115Z,98.10
2023-03-23T19:31:55.781Z,98.10
2023-03-23T19:34:23.757Z,98.10
2023-03-23T19:36:54.490Z,98.10
2023-03-23T19:39:26.587Z,98.10
2023-03-23T19:41:53.310Z,98.00
2023-03-23T19:44:19.954Z,98.00
2023-03-23T19:46:48.097Z,98.00
2023-03-23T19:49:15.048Z,98.00
2023-03-23T19:51:41.827Z,98.00
2023-03-23T19:54:08.954Z,98.00
2023-03-23T19:56:36.080Z,98.00
2023-03-23T19:59:03.158Z,98.00
2023-03-23T20:01:29.999Z,98.00
2023-03-23T20:03:59.741Z,98.00
2023-03-23T20:06:28.996Z,98.10
2023-03-23T20:08:56.653Z,98.10
2023-03-23T20:11:23.583Z,98.10
2023-03-23T20:13:50.618Z,98.10
2023-03-23T20:16:18.239Z,98.00
2023-03-23T20:18:46.277Z,98.00
2023-03-23T20:23:43.806Z,97.90
2023-03-23T20:26:19.669Z,97.90
2023-03-23T20:28:47.656Z,97.90
2023-03-23T20:31:23.101Z,97.90
2023-03-23T20:34:00.955Z,97.80
2023-03-23T20:36:37.091Z,97.80
2023-03-23T20:39:11.006Z,97.80
2023-03-23T20:41:38.803Z,97.70
2023-03-23T20:44:08.925Z,97.70
2023-03-23T20:46:36.442Z,97.60
2023-03-23T20:49:03.229Z,97.60
2023-03-23T20:51:30.296Z,97.60
2023-03-23T20:53:56.957Z,97.50
2023-03-23T20:56:25.267Z,97.50
2023-03-23T20:58:52.198Z,97.40
2023-03-23T21:01:21.318Z,97.40
2023-03-23T21:03:52.002Z,97.30
2023-03-23T21:06:19.256Z,97.30
2023-03-23T21:08:46.483Z,97.40
2023-03-23T21:11:21.256Z,97.20
2023-03-23T21:13:48.737Z,97.00
2023-03-23T21:16:15.800Z,97.00
2023-03-23T21:18:42.561Z,97.00
2023-03-23T21:21:11.379Z,97.10
2023-03-23T21:23:46.926Z,97.00
2023-03-23T21:26:16.705Z,97.00
2023-03-23T21:28:44.550Z,97.00
2023-03-23T21:31:12.300Z,97.00
2023-03-23T21:33:39.383Z,97.10
2023-03-23T21:36:06.864Z,97.00
2023-03-23T21:38:34.090Z,97.10
2023-03-23T21:41:06.827Z,97.00
2023-03-23T21:43:33.611Z,97.10
2023-03-23T21:46:03.546Z,97.10
2023-03-23T21:48:30.355Z,97.10
2023-03-23T21:50:57.285Z,97.00
2023-03-23T21:53:25.457Z,97.00
2023-03-23T21:55:52.592Z,97.10
2023-03-23T21:58:21.519Z,97.00
2023-03-23T22:00:50.169Z,97.00
2023-03-23T22:03:19.068Z,97.10
2023-03-23T22:05:46.378Z,97.10
2023-03-23T22:08:14.172Z,97.10
2023-03-23T22:11:00.208Z,97.20
2023-03-23T22:13:30.228Z,97.20
2023-03-23T22:16:01.102Z,97.20
2023-03-23T22:18:28.442Z,97.40
2023-03-23T22:20:56.538Z,97.30
2023-03-23T22:23:23.197Z,97.40
2023-03-23T22:25:49.825Z,97.40
2023-03-23T22:28:19.347Z,97.50
2023-03-23T22:30:47.081Z,97.60
2023-03-23T22:33:14.134Z,97.60
2023-03-23T22:35:40.813Z,97.70
2023-03-23T22:38:07.440Z,97.80
2023-03-23T22:40:34.473Z,97.80
2023-03-23T22:43:01.185Z,97.80
2023-03-23T22:45:27.967Z,97.90
2023-03-23T22:47:55.078Z,98.00
2023-03-23T22:50:24.085Z,98.00
2023-03-23T22:52:50.771Z,98.10
2023-03-23T22:55:17.522Z,98.20
2023-03-23T22:57:44.275Z,98.20
2023-03-23T23:00:14.657Z,98.30
2023-03-23T23:02:45.217Z,98.40
2023-03-23T23:05:13.054Z,98.50
2023-03-23T23:07:39.701Z,98.50
2023-03-23T23:10:06.981Z,98.60
2023-03-23T23:12:35.023Z,98.60
2023-03-23T23:15:04.291Z,98.60
2023-03-23T23:17:34.724Z,98.70
2023-03-23T23:20:05.291Z,98.70
2023-03-23T23:22:32.540Z,98.80
2023-03-23T23:24:59.847Z,98.80
2023-03-23T23:27:26.500Z,98.90
2023-03-23T23:29:53.162Z,98.90
2023-03-23T23:32:20.578Z,98.90
2023-03-23T23:34:47.199Z,99.00
2023-03-23T23:37:14.032Z,99.40
2023-03-23T23:39:41.216Z,99.10
2023-03-23T23:42:08.124Z,99.20
2023-03-23T23:44:35.034Z,99.20
2023-03-23T23:47:02.351Z,99.20
2023-03-23T23:49:29.193Z,99.30
2023-03-23T23:51:56.496Z,99.40
2023-03-23T23:54:29.525Z,99.40
2023-03-23T23:56:58.251Z,99.40
2023-03-23T23:59:25.916Z,99.50
